sensor_id;sensor_type;location;lat;lon;timestamp;temperature;humidity
16955;DHT22;8594;52.052;8.354;2023-02-28T00:00:36;3.20;99.90
16955;DHT22;8594;52.052;8.354;2023-02-28T00:03:05;3.30;99.90
16955;DHT22;8594;52.052;8.354;2023-02-28T00:05:32;3.30;99.90
16955;DHT22;8594;52.052;8.354;2023-02-28T00:07:59;3.30;99.90
16955;DHT22;8594;52.052;8.354;2023-02-28T00:10:29;3.30;99.90
16955;DHT22;8594;52.052;8.354;2023-02-28T00:13:00;3.30;99.90
16955;DHT22;8594;52.052;8.354;2023-02-28T00:15:28;3.10;99.90
16955;DHT22;8594;52.052;8.354;2023-02-28T00:17:55;3.20;99.90
16955;DHT22;8594;52.052;8.354;2023-02-28T00:20:22;3.20;99.90
16955;DHT22;8594;52.052;8.354;2023-02-28T00:22:51;3.00;99.90
16955;DHT22;8594;52.052;8.354;2023-02-28T00:25:22;2.80;99.90
16955;DHT22;8594;52.052;8.354;2023-02-28T00:27:51;2.80;99.90
16955;DHT22;8594;52.052;8.354;2023-02-28T00:30:19;3.10;99.90
16955;DHT22;8594;52.052;8.354;2023-02-28T00:32:47;2.90;99.90
16955;DHT22;8594;52.052;8.354;2023-02-28T00:35:15;2.80;99.90
16955;DHT22;8594;52.052;8.354;2023-02-28T00:37:42;2.70;99.90
16955;DHT22;8594;52.052;8.354;2023-02-28T00:40:10;2.70;99.90
16955;DHT22;8594;52.052;8.354;2023-02-28T00:42:38;2.80;99.90
16955;DHT22;8594;52.052;8.354;2023-02-28T00:45:08;2.60;99.90
16955;DHT22;8594;52.052;8.354;2023-02-28T00:47:35;3.00;99.90
16955;DHT22;8594;52.052;8.354;2023-02-28T00:50:03;3.20;99.90
16955;DHT22;8594;52.052;8.354;2023-02-28T00:52:30;3.40;99.90
16955;DHT22;8594;52.052;8.354;2023-02-28T00:54:57;3.40;99.90
16955;DHT22;8594;52.052;8.354;2023-02-28T00:57:24;3.40;99.90
16955;DHT22;8594;52.052;8.354;2023-02-28T00:59:51;3.30;99.90
16955;DHT22;8594;52.052;8.354;2023-02-28T01:02:21;3.30;99.90
16955;DHT22;8594;52.052;8.354;2023-02-28T01:04:48;3.20;99.90
16955;DHT22;8594;52.052;8.354;2023-02-28T01:07:15;3.10;99.90
16955;DHT22;8594;52.052;8.354;2023-02-28T01:09:42;3.00;99.90
16955;DHT22;8594;52.052;8.354;2023-02-28T01:12:09;3.00;99.90
16955;DHT22;8594;52.052;8.354;2023-02-28T01:14:36;2.80;99.90
16955;DHT22;8594;52.052;8.354;2023-02-28T01:17:04;2.90;99.90
16955;DHT22;8594;52.052;8.354;2023-02-28T01:19:32;2.90;99.90
16955;DHT22;8594;52.052;8.354;2023-02-28T01:22:01;2.90;99.90
16955;DHT22;8594;52.052;8.354;2023-02-28T01:24:28;2.90;99.90
16955;DHT22;8594;52.052;8.354;2023-02-28T01:26:55;2.90;99.90
16955;DHT22;8594;52.052;8.354;2023-02-28T01:29:23;2.90;99.90
16955;DHT22;8594;52.052;8.354;2023-02-28T01:31:49;3.00;99.90
16955;DHT22;8594;52.052;8.354;2023-02-28T01:34:16;3.00;99.90
16955;DHT22;8594;52.052;8.354;2023-02-28T01:36:45;2.90;99.90
16955;DHT22;8594;52.052;8.354;2023-02-28T01:39:12;3.00;99.90
16955;DHT22;8594;52.052;8.354;2023-02-28T01:41:39;3.10;99.90
16955;DHT22;8594;52.052;8.354;2023-02-28T01:47:25;3.10;99.90
16955;DHT22;8594;52.052;8.354;2023-02-28T01:49:55;3.10;99.90
16955;DHT22;8594;52.052;8.354;2023-02-28T01:52:24;3.20;99.90
16955;DHT22;8594;52.052;8.354;2023-02-28T01:54:54;3.10;99.90
16955;DHT22;8594;52.052;8.354;2023-02-28T01:57:25;3.20;99.90
16955;DHT22;8594;52.052;8.354;2023-02-28T01:59:58;3.20;99.90
16955;DHT22;8594;52.052;8.354;2023-02-28T02:02:27;3.10;99.90
16955;DHT22;8594;52.052;8.354;2023-02-28T02:04:58;3.10;99.90
16955;DHT22;8594;52.052;8.354;2023-02-28T02:07:32;3.10;99.90
16955;DHT22;8594;52.052;8.354;2023-02-28T02:10:06;3.10;99.90
16955;DHT22;8594;52.052;8.354;2023-02-28T02:15:41;3.00;99.90
16955;DHT22;8594;52.052;8.354;2023-02-28T02:18:19;2.90;99.90
16955;DHT22;8594;52.052;8.354;2023-02-28T02:21:16;2.80;99.90
16955;DHT22;8594;52.052;8.354;2023-02-28T02:24:25;2.80;99.90
16955;DHT22;8594;52.052;8.354;2023-02-28T02:27:17;2.80;99.90
16955;DHT22;8594;52.052;8.354;2023-02-28T02:33:30;2.80;99.90
16955;DHT22;8594;52.052;8.354;2023-02-28T02:36:19;2.80;99.90
16955;DHT22;8594;52.052;8.354;2023-02-28T02:38:53;2.80;99.90
16955;DHT22;8594;52.052;8.354;2023-02-28T02:41:31;2.70;99.90
16955;DHT22;8594;52.052;8.354;2023-02-28T02:44:06;2.80;99.90
16955;DHT22;8594;52.052;8.354;2023-02-28T02:46:41;2.80;99.90
16955;DHT22;8594;52.052;8.354;2023-02-28T02:49:14;2.80;99.90
16955;DHT22;8594;52.052;8.354;2023-02-28T02:51:44;2.90;99.90
16955;DHT22;8594;52.052;8.354;2023-02-28T02:54:17;2.90;99.90
16955;DHT22;8594;52.052;8.354;2023-02-28T02:56:48;3.00;99.90
16955;DHT22;8594;52.052;8.354;2023-02-28T02:59:20;3.00;99.90
16955;DHT22;8594;52.052;8.354;2023-02-28T03:01:51;2.90;99.90
16955;DHT22;8594;52.052;8.354;2023-02-28T03:04:22;2.90;99.90
16955;DHT22;8594;52.052;8.354;2023-02-28T03:06:52;2.90;99.90
16955;DHT22;8594;52.052;8.354;2023-02-28T03:09:20;2.90;99.90
16955;DHT22;8594;52.052;8.354;2023-02-28T03:11:48;2.90;99.90
16955;DHT22;8594;52.052;8.354;2023-02-28T03:14:33;2.80;99.90
16955;DHT22;8594;52.052;8.354;2023-02-28T03:17:27;2.90;99.90
16955;DHT22;8594;52.052;8.354;2023-02-28T03:20:09;2.90;99.90
16955;DHT22;8594;52.052;8.354;2023-02-28T03:22:56;2.80;99.90
16955;DHT22;8594;52.052;8.354;2023-02-28T03:25:33;2.90;99.90
16955;DHT22;8594;52.052;8.354;2023-02-28T03:28:09;2.90;99.90
16955;DHT22;8594;52.052;8.354;2023-02-28T03:30:46;2.80;99.90
16955;DHT22;8594;52.052;8.354;2023-02-28T03:33:20;2.90;99.90
16955;DHT22;8594;52.052;8.354;2023-02-28T03:35:52;2.80;99.90
16955;DHT22;8594;52.052;8.354;2023-02-28T03:38:28;2.80;99.90
16955;DHT22;8594;52.052;8.354;2023-02-28T03:41:02;2.80;99.90
16955;DHT22;8594;52.052;8.354;2023-02-28T03:43:35;2.80;99.90
16955;DHT22;8594;52.052;8.354;2023-02-28T03:46:10;2.70;99.90
16955;DHT22;8594;52.052;8.354;2023-02-28T03:48:44;2.70;99.90
16955;DHT22;8594;52.052;8.354;2023-02-28T03:51:17;2.60;99.90
16955;DHT22;8594;52.052;8.354;2023-02-28T03:53:52;2.60;99.90
16955;DHT22;8594;52.052;8.354;2023-02-28T03:56:27;2.60;99.90
16955;DHT22;8594;52.052;8.354;2023-02-28T03:59:02;2.50;99.90
16955;DHT22;8594;52.052;8.354;2023-02-28T04:01:35;2.50;99.90
16955;DHT22;8594;52.052;8.354;2023-02-28T04:04:04;2.40;99.90
16955;DHT22;8594;52.052;8.354;2023-02-28T04:06:33;2.20;99.90
16955;DHT22;8594;52.052;8.354;2023-02-28T04:09:02;2.10;99.90
16955;DHT22;8594;52.052;8.354;2023-02-28T04:11:33;2.10;99.90
16955;DHT22;8594;52.052;8.354;2023-02-28T04:14:01;2.30;99.90
16955;DHT22;8594;52.052;8.354;2023-02-28T04:16:29;2.20;99.90
16955;DHT22;8594;52.052;8.354;2023-02-28T04:18:55;2.30;99.90
16955;DHT22;8594;52.052;8.354;2023-02-28T04:21:27;2.30;99.90
16955;DHT22;8594;52.052;8.354;2023-02-28T04:23:54;2.50;99.90
16955;DHT22;8594;52.052;8.354;2023-02-28T04:26:22;2.50;99.90
16955;DHT22;8594;52.052;8.354;2023-02-28T04:28:49;2.40;99.90
16955;DHT22;8594;52.052;8.354;2023-02-28T04:31:16;2.40;99.90
16955;DHT22;8594;52.052;8.354;2023-02-28T04:33:43;2.30;99.90
16955;DHT22;8594;52.052;8.354;2023-02-28T04:36:10;2.30;99.90
16955;DHT22;8594;52.052;8.354;2023-02-28T04:38:38;2.30;99.90
16955;DHT22;8594;52.052;8.354;2023-02-28T04:41:05;2.20;99.90
16955;DHT22;8594;52.052;8.354;2023-02-28T04:43:33;2.00;99.90
16955;DHT22;8594;52.052;8.354;2023-02-28T04:46:03;2.10;99.90
16955;DHT22;8594;52.052;8.354;2023-02-28T04:48:32;2.20;99.90
16955;DHT22;8594;52.052;8.354;2023-02-28T04:51:01;2.40;99.90
16955;DHT22;8594;52.052;8.354;2023-02-28T04:53:29;2.40;99.90
16955;DHT22;8594;52.052;8.354;2023-02-28T04:55:56;2.40;99.90
16955;DHT22;8594;52.052;8.354;2023-02-28T04:58:30;2.30;99.90
16955;DHT22;8594;52.052;8.354;2023-02-28T05:01:04;2.20;99.90
16955;DHT22;8594;52.052;8.354;2023-02-28T05:03:38;2.00;99.90
16955;DHT22;8594;52.052;8.354;2023-02-28T05:06:06;2.00;99.90
16955;DHT22;8594;52.052;8.354;2023-02-28T05:08:33;2.00;99.90
16955;DHT22;8594;52.052;8.354;2023-02-28T05:11:00;1.90;99.90
16955;DHT22;8594;52.052;8.354;2023-02-28T05:13:27;2.00;99.90
16955;DHT22;8594;52.052;8.354;2023-02-28T05:15:55;2.10;99.90
16955;DHT22;8594;52.052;8.354;2023-02-28T05:18:24;2.10;99.90
16955;DHT22;8594;52.052;8.354;2023-02-28T05:20:50;2.10;99.90
16955;DHT22;8594;52.052;8.354;2023-02-28T05:23:17;1.90;99.90
16955;DHT22;8594;52.052;8.354;2023-02-28T05:25:48;1.90;99.90
16955;DHT22;8594;52.052;8.354;2023-02-28T05:28:14;2.10;99.90
16955;DHT22;8594;52.052;8.354;2023-02-28T05:30:41;2.20;99.90
16955;DHT22;8594;52.052;8.354;2023-02-28T05:33:10;2.10;99.90
16955;DHT22;8594;52.052;8.354;2023-02-28T05:35:40;2.00;99.90
16955;DHT22;8594;52.052;8.354;2023-02-28T05:38:08;2.00;99.90
16955;DHT22;8594;52.052;8.354;2023-02-28T05:40:35;2.00;99.90
16955;DHT22;8594;52.052;8.354;2023-02-28T05:43:04;2.00;99.90
16955;DHT22;8594;52.052;8.354;2023-02-28T05:45:31;2.00;99.90
16955;DHT22;8594;52.052;8.354;2023-02-28T05:47:57;2.10;99.90
16955;DHT22;8594;52.052;8.354;2023-02-28T05:50:24;2.10;99.90
16955;DHT22;8594;52.052;8.354;2023-02-28T05:52:52;1.90;99.90
16955;DHT22;8594;52.052;8.354;2023-02-28T05:55:19;1.80;99.90
16955;DHT22;8594;52.052;8.354;2023-02-28T05:57:46;1.70;99.90
16955;DHT22;8594;52.052;8.354;2023-02-28T06:00:13;1.80;99.90
16955;DHT22;8594;52.052;8.354;2023-02-28T06:02:43;1.90;99.90
16955;DHT22;8594;52.052;8.354;2023-02-28T06:05:13;1.80;99.90
16955;DHT22;8594;52.052;8.354;2023-02-28T06:07:41;1.90;99.90
16955;DHT22;8594;52.052;8.354;2023-02-28T06:10:11;2.00;99.90
16955;DHT22;8594;52.052;8.354;2023-02-28T06:12:39;1.80;99.90
16955;DHT22;8594;52.052;8.354;2023-02-28T06:15:10;1.80;99.90
16955;DHT22;8594;52.052;8.354;2023-02-28T06:17:38;1.80;99.90
16955;DHT22;8594;52.052;8.354;2023-02-28T06:20:08;1.80;99.90
16955;DHT22;8594;52.052;8.354;2023-02-28T06:22:38;1.70;99.90
16955;DHT22;8594;52.052;8.354;2023-02-28T06:25:06;1.70;99.90
16955;DHT22;8594;52.052;8.354;2023-02-28T06:27:34;1.80;99.90
16955;DHT22;8594;52.052;8.354;2023-02-28T06:30:01;1.80;99.90
16955;DHT22;8594;52.052;8.354;2023-02-28T06:32:28;1.90;99.90
16955;DHT22;8594;52.052;8.354;2023-02-28T06:34:55;2.00;99.90
16955;DHT22;8594;52.052;8.354;2023-02-28T06:37:23;2.10;99.90
16955;DHT22;8594;52.052;8.354;2023-02-28T06:39:51;2.10;99.90
16955;DHT22;8594;52.052;8.354;2023-02-28T06:42:18;2.20;99.90
16955;DHT22;8594;52.052;8.354;2023-02-28T06:44:46;2.10;99.90
16955;DHT22;8594;52.052;8.354;2023-02-28T06:47:13;2.10;99.90
16955;DHT22;8594;52.052;8.354;2023-02-28T06:49:40;2.00;99.90
16955;DHT22;8594;52.052;8.354;2023-02-28T06:52:07;2.00;99.90
16955;DHT22;8594;52.052;8.354;2023-02-28T06:54:36;2.10;99.90
16955;DHT22;8594;52.052;8.354;2023-02-28T06:57:03;2.10;99.90
16955;DHT22;8594;52.052;8.354;2023-02-28T06:59:30;2.10;99.90
16955;DHT22;8594;52.052;8.354;2023-02-28T07:01:58;2.10;99.90
16955;DHT22;8594;52.052;8.354;2023-02-28T07:04:25;2.30;99.90
16955;DHT22;8594;52.052;8.354;2023-02-28T07:06:53;2.50;99.90
16955;DHT22;8594;52.052;8.354;2023-02-28T07:09:21;2.50;99.90
16955;DHT22;8594;52.052;8.354;2023-02-28T07:11:48;2.50;99.90
16955;DHT22;8594;52.052;8.354;2023-02-28T07:14:15;2.60;99.90
16955;DHT22;8594;52.052;8.354;2023-02-28T07:16:42;2.60;99.90
16955;DHT22;8594;52.052;8.354;2023-02-28T07:19:12;2.60;99.90
16955;DHT22;8594;52.052;8.354;2023-02-28T07:21:41;2.80;99.90
16955;DHT22;8594;52.052;8.354;2023-02-28T07:24:08;3.00;99.90
16955;DHT22;8594;52.052;8.354;2023-02-28T07:26:35;3.10;99.90
16955;DHT22;8594;52.052;8.354;2023-02-28T07:29:02;3.00;99.90
16955;DHT22;8594;52.052;8.354;2023-02-28T07:31:29;2.90;99.90
16955;DHT22;8594;52.052;8.354;2023-02-28T07:33:56;3.00;99.90
16955;DHT22;8594;52.052;8.354;2023-02-28T07:36:24;3.40;99.90
16955;DHT22;8594;52.052;8.354;2023-02-28T07:38:51;3.80;99.90
16955;DHT22;8594;52.052;8.354;2023-02-28T07:41:19;4.30;99.90
16955;DHT22;8594;52.052;8.354;2023-02-28T07:43:49;5.10;99.90
16955;DHT22;8594;52.052;8.354;2023-02-28T07:46:16;5.70;99.90
16955;DHT22;8594;52.052;8.354;2023-02-28T07:48:45;6.10;99.90
16955;DHT22;8594;52.052;8.354;2023-02-28T07:51:12;6.50;99.90
16955;DHT22;8594;52.052;8.354;2023-02-28T07:53:40;6.80;99.90
16955;DHT22;8594;52.052;8.354;2023-02-28T07:56:07;7.30;99.90
16955;DHT22;8594;52.052;8.354;2023-02-28T07:58:35;7.70;99.90
16955;DHT22;8594;52.052;8.354;2023-02-28T08:01:06;7.90;99.90
16955;DHT22;8594;52.052;8.354;2023-02-28T08:03:34;8.00;99.90
16955;DHT22;8594;52.052;8.354;2023-02-28T08:06:02;8.00;99.90
16955;DHT22;8594;52.052;8.354;2023-02-28T08:08:29;8.10;99.90
16955;DHT22;8594;52.052;8.354;2023-02-28T08:10:59;8.20;99.90
16955;DHT22;8594;52.052;8.354;2023-02-28T08:13:27;8.30;99.90
16955;DHT22;8594;52.052;8.354;2023-02-28T08:15:55;8.40;99.90
16955;DHT22;8594;52.052;8.354;2023-02-28T08:18:23;8.50;99.90
16955;DHT22;8594;52.052;8.354;2023-02-28T08:20:50;8.50;99.90
16955;DHT22;8594;52.052;8.354;2023-02-28T08:23:17;8.60;99.90
16955;DHT22;8594;52.052;8.354;2023-02-28T08:25:44;8.80;99.90
16955;DHT22;8594;52.052;8.354;2023-02-28T08:28:12;8.80;99.90
16955;DHT22;8594;52.052;8.354;2023-02-28T08:30:39;9.10;99.90
16955;DHT22;8594;52.052;8.354;2023-02-28T08:33:06;9.30;99.90
16955;DHT22;8594;52.052;8.354;2023-02-28T08:35:35;9.40;99.90
16955;DHT22;8594;52.052;8.354;2023-02-28T08:38:02;9.50;99.90
16955;DHT22;8594;52.052;8.354;2023-02-28T08:40:29;9.60;99.40
16955;DHT22;8594;52.052;8.354;2023-02-28T08:42:56;9.60;99.00
16955;DHT22;8594;52.052;8.354;2023-02-28T08:45:24;9.90;98.20
16955;DHT22;8594;52.052;8.354;2023-02-28T08:47:52;9.60;97.60
16955;DHT22;8594;52.052;8.354;2023-02-28T08:50:20;9.50;97.60
16955;DHT22;8594;52.052;8.354;2023-02-28T08:52:47;9.50;97.10
16955;DHT22;8594;52.052;8.354;2023-02-28T08:55:14;9.80;96.60
16955;DHT22;8594;52.052;8.354;2023-02-28T08:57:41;9.80;95.80
16955;DHT22;8594;52.052;8.354;2023-02-28T09:00:09;9.70;95.10
16955;DHT22;8594;52.052;8.354;2023-02-28T09:02:40;9.70;95.80
16955;DHT22;8594;52.052;8.354;2023-02-28T09:05:10;9.60;94.90
16955;DHT22;8594;52.052;8.354;2023-02-28T09:07:37;9.70;95.40
16955;DHT22;8594;52.052;8.354;2023-02-28T09:10:04;9.70;95.60
16955;DHT22;8594;52.052;8.354;2023-02-28T09:12:33;9.50;95.50
16955;DHT22;8594;52.052;8.354;2023-02-28T09:15:01;9.80;95.60
16955;DHT22;8594;52.052;8.354;2023-02-28T09:17:28;9.90;95.90
16955;DHT22;8594;52.052;8.354;2023-02-28T09:19:57;10.20;94.80
16955;DHT22;8594;52.052;8.354;2023-02-28T09:22:24;10.10;94.80
16955;DHT22;8594;52.052;8.354;2023-02-28T09:24:51;10.10;94.80
16955;DHT22;8594;52.052;8.354;2023-02-28T09:27:18;10.10;94.30
16955;DHT22;8594;52.052;8.354;2023-02-28T09:29:45;9.90;94.80
16955;DHT22;8594;52.052;8.354;2023-02-28T09:32:12;9.90;94.30
16955;DHT22;8594;52.052;8.354;2023-02-28T09:34:38;9.90;94.90
16955;DHT22;8594;52.052;8.354;2023-02-28T09:37:07;10.00;95.30
16955;DHT22;8594;52.052;8.354;2023-02-28T09:39:34;10.00;95.60
16955;DHT22;8594;52.052;8.354;2023-02-28T09:42:02;9.80;95.30
16955;DHT22;8594;52.052;8.354;2023-02-28T09:44:33;9.60;95.30
16955;DHT22;8594;52.052;8.354;2023-02-28T09:47:10;9.10;96.20
16955;DHT22;8594;52.052;8.354;2023-02-28T09:49:46;9.30;95.90
16955;DHT22;8594;52.052;8.354;2023-02-28T09:52:18;9.20;96.50
16955;DHT22;8594;52.052;8.354;2023-02-28T09:54:46;9.70;96.20
16955;DHT22;8594;52.052;8.354;2023-02-28T09:57:18;10.50;95.00
16955;DHT22;8594;52.052;8.354;2023-02-28T10:00:05;10.80;94.00
16955;DHT22;8594;52.052;8.354;2023-02-28T10:02:49;11.20;93.50
16955;DHT22;8594;52.052;8.354;2023-02-28T10:05:25;11.10;93.30
16955;DHT22;8594;52.052;8.354;2023-02-28T10:08:05;11.10;93.30
16955;DHT22;8594;52.052;8.354;2023-02-28T10:10:40;11.40;93.20
16955;DHT22;8594;52.052;8.354;2023-02-28T10:13:20;11.40;93.60
16955;DHT22;8594;52.052;8.354;2023-02-28T10:15:56;11.00;92.10
16955;DHT22;8594;52.052;8.354;2023-02-28T10:18:27;10.80;92.80
16955;DHT22;8594;52.052;8.354;2023-02-28T10:20:59;10.50;92.20
16955;DHT22;8594;52.052;8.354;2023-02-28T10:23:32;10.20;92.80
16955;DHT22;8594;52.052;8.354;2023-02-28T10:26:11;10.10;93.00
16955;DHT22;8594;52.052;8.354;2023-02-28T10:28:41;10.40;94.30
16955;DHT22;8594;52.052;8.354;2023-02-28T10:31:10;10.40;93.00
16955;DHT22;8594;52.052;8.354;2023-02-28T10:33:41;10.90;93.20
16955;DHT22;8594;52.052;8.354;2023-02-28T10:36:13;11.30;92.30
16955;DHT22;8594;52.052;8.354;2023-02-28T10:38:45;11.00;91.90
16955;DHT22;8594;52.052;8.354;2023-02-28T10:41:15;10.50;92.50
16955;DHT22;8594;52.052;8.354;2023-02-28T10:43:43;10.30;92.70
16955;DHT22;8594;52.052;8.354;2023-02-28T10:46:15;10.10;92.80
16955;DHT22;8594;52.052;8.354;2023-02-28T10:49:04;9.80;93.40
16955;DHT22;8594;52.052;8.354;2023-02-28T10:51:37;9.70;92.90
16955;DHT22;8594;52.052;8.354;2023-02-28T10:54:16;9.00;93.30
16955;DHT22;8594;52.052;8.354;2023-02-28T10:56:45;8.60;93.30
16955;DHT22;8594;52.052;8.354;2023-02-28T10:59:28;8.40;94.10
16955;DHT22;8594;52.052;8.354;2023-02-28T11:01:56;8.20;94.30
16955;DHT22;8594;52.052;8.354;2023-02-28T11:04:35;7.60;94.00
16955;DHT22;8594;52.052;8.354;2023-02-28T11:07:09;6.80;94.80
16955;DHT22;8594;52.052;8.354;2023-02-28T11:09:48;6.60;95.70
16955;DHT22;8594;52.052;8.354;2023-02-28T11:12:21;7.00;95.80
16955;DHT22;8594;52.052;8.354;2023-02-28T11:14:51;7.30;96.00
16955;DHT22;8594;52.052;8.354;2023-02-28T11:17:23;7.60;96.30
16955;DHT22;8594;52.052;8.354;2023-02-28T11:19:54;7.60;95.90
16955;DHT22;8594;52.052;8.354;2023-02-28T11:22:26;8.00;95.90
16955;DHT22;8594;52.052;8.354;2023-02-28T11:24:59;8.30;95.20
16955;DHT22;8594;52.052;8.354;2023-02-28T11:27:45;8.30;95.30
16955;DHT22;8594;52.052;8.354;2023-02-28T11:30:27;8.50;94.80
16955;DHT22;8594;52.052;8.354;2023-02-28T11:32:58;8.40;95.20
16955;DHT22;8594;52.052;8.354;2023-02-28T11:35:28;8.90;95.10
16955;DHT22;8594;52.052;8.354;2023-02-28T11:37:58;9.00;94.80
16955;DHT22;8594;52.052;8.354;2023-02-28T11:40:31;9.10;94.70
16955;DHT22;8594;52.052;8.354;2023-02-28T11:43:19;9.20;94.70
16955;DHT22;8594;52.052;8.354;2023-02-28T11:46:05;8.70;94.80
16955;DHT22;8594;52.052;8.354;2023-02-28T11:48:47;8.20;95.50
16955;DHT22;8594;52.052;8.354;2023-02-28T11:51:22;8.20;95.20
16955;DHT22;8594;52.052;8.354;2023-02-28T11:54:08;7.90;95.10
16955;DHT22;8594;52.052;8.354;2023-02-28T11:57:00;7.90;95.40
16955;DHT22;8594;52.052;8.354;2023-02-28T11:59:44;8.00;95.60
16955;DHT22;8594;52.052;8.354;2023-02-28T12:02:26;7.80;96.00
16955;DHT22;8594;52.052;8.354;2023-02-28T12:05:15;7.70;95.70
16955;DHT22;8594;52.052;8.354;2023-02-28T12:07:58;7.60;96.10
16955;DHT22;8594;52.052;8.354;2023-02-28T12:10:36;7.80;96.00
16955;DHT22;8594;52.052;8.354;2023-02-28T12:13:18;8.10;95.80
16955;DHT22;8594;52.052;8.354;2023-02-28T12:16:14;8.20;96.10
16955;DHT22;8594;52.052;8.354;2023-02-28T12:19:08;8.40;95.70
16955;DHT22;8594;52.052;8.354;2023-02-28T12:21:53;8.70;95.60
16955;DHT22;8594;52.052;8.354;2023-02-28T12:24:52;8.80;95.40
16955;DHT22;8594;52.052;8.354;2023-02-28T12:27:30;8.90;95.00
16955;DHT22;8594;52.052;8.354;2023-02-28T12:30:05;9.10;95.20
16955;DHT22;8594;52.052;8.354;2023-02-28T12:32:45;9.00;94.80
16955;DHT22;8594;52.052;8.354;2023-02-28T12:35:21;8.80;95.10
16955;DHT22;8594;52.052;8.354;2023-02-28T12:37:57;8.70;95.20
16955;DHT22;8594;52.052;8.354;2023-02-28T12:40:34;9.00;95.80
16955;DHT22;8594;52.052;8.354;2023-02-28T12:43:11;8.80;95.00
16955;DHT22;8594;52.052;8.354;2023-02-28T12:45:45;8.50;95.70
16955;DHT22;8594;52.052;8.354;2023-02-28T12:48:21;8.00;96.30
16955;DHT22;8594;52.052;8.354;2023-02-28T12:50:54;7.90;96.40
16955;DHT22;8594;52.052;8.354;2023-02-28T12:53:25;8.10;96.20
16955;DHT22;8594;52.052;8.354;2023-02-28T12:56:09;8.00;96.30
16955;DHT22;8594;52.052;8.354;2023-02-28T12:58:44;8.10;96.60
16955;DHT22;8594;52.052;8.354;2023-02-28T13:04:40;8.40;96.30
16955;DHT22;8594;52.052;8.354;2023-02-28T13:10:24;8.10;96.60
16955;DHT22;8594;52.052;8.354;2023-02-28T13:13:05;8.20;96.70
16955;DHT22;8594;52.052;8.354;2023-02-28T13:15:32;8.20;96.00
16955;DHT22;8594;52.052;8.354;2023-02-28T13:18:04;8.10;95.70
16955;DHT22;8594;52.052;8.354;2023-02-28T13:20:35;8.10;96.30
16955;DHT22;8594;52.052;8.354;2023-02-28T13:23:03;8.20;97.20
16955;DHT22;8594;52.052;8.354;2023-02-28T13:25:51;8.20;97.20
16955;DHT22;8594;52.052;8.354;2023-02-28T13:32:31;8.00;97.30
16955;DHT22;8594;52.052;8.354;2023-02-28T13:38:33;8.10;97.30
16955;DHT22;8594;52.052;8.354;2023-02-28T13:44:11;7.90;96.80
16955;DHT22;8594;52.052;8.354;2023-02-28T13:50:24;7.50;96.60
16955;DHT22;8594;52.052;8.354;2023-02-28T13:53:24;7.50;96.50
16955;DHT22;8594;52.052;8.354;2023-02-28T13:56:15;7.50;96.70
16955;DHT22;8594;52.052;8.354;2023-02-28T13:58:54;7.20;96.90
16955;DHT22;8594;52.052;8.354;2023-02-28T14:01:38;7.20;97.00
16955;DHT22;8594;52.052;8.354;2023-02-28T14:04:44;7.40;97.10
16955;DHT22;8594;52.052;8.354;2023-02-28T14:07:21;7.50;97.00
16955;DHT22;8594;52.052;8.354;2023-02-28T14:09:59;7.80;96.60
16955;DHT22;8594;52.052;8.354;2023-02-28T14:13:00;7.80;96.80
16955;DHT22;8594;52.052;8.354;2023-02-28T14:15:47;7.60;96.70
16955;DHT22;8594;52.052;8.354;2023-02-28T14:18:23;7.40;96.70
16955;DHT22;8594;52.052;8.354;2023-02-28T14:20:57;7.00;97.50
16955;DHT22;8594;52.052;8.354;2023-02-28T14:23:55;7.10;98.00
16955;DHT22;8594;52.052;8.354;2023-02-28T14:33:19;7.30;97.80
16955;DHT22;8594;52.052;8.354;2023-02-28T14:36:03;7.40;98.00
16955;DHT22;8594;52.052;8.354;2023-02-28T14:38:37;7.40;97.70
16955;DHT22;8594;52.052;8.354;2023-02-28T14:41:16;7.40;98.20
16955;DHT22;8594;52.052;8.354;2023-02-28T14:43:54;7.50;98.10
16955;DHT22;8594;52.052;8.354;2023-02-28T14:46:26;7.30;98.50
16955;DHT22;8594;52.052;8.354;2023-02-28T14:48:56;7.20;99.10
16955;DHT22;8594;52.052;8.354;2023-02-28T14:51:23;7.30;99.00
16955;DHT22;8594;52.052;8.354;2023-02-28T14:53:57;7.30;99.10
16955;DHT22;8594;52.052;8.354;2023-02-28T14:56:29;7.20;98.90
16955;DHT22;8594;52.052;8.354;2023-02-28T14:59:01;7.00;99.60
16955;DHT22;8594;52.052;8.354;2023-02-28T15:01:28;7.10;99.40
16955;DHT22;8594;52.052;8.354;2023-02-28T15:03:59;7.10;99.50
16955;DHT22;8594;52.052;8.354;2023-02-28T15:06:28;7.20;99.70
16955;DHT22;8594;52.052;8.354;2023-02-28T15:09:10;7.20;99.30
16955;DHT22;8594;52.052;8.354;2023-02-28T15:11:45;6.80;99.90
16955;DHT22;8594;52.052;8.354;2023-02-28T15:14:21;6.80;99.90
16955;DHT22;8594;52.052;8.354;2023-02-28T15:17:00;6.80;99.90
16955;DHT22;8594;52.052;8.354;2023-02-28T15:19:34;6.90;99.90
16955;DHT22;8594;52.052;8.354;2023-02-28T15:22:08;6.70;99.90
16955;DHT22;8594;52.052;8.354;2023-02-28T15:24:42;6.50;99.90
16955;DHT22;8594;52.052;8.354;2023-02-28T15:27:13;6.50;99.90
16955;DHT22;8594;52.052;8.354;2023-02-28T15:29:49;6.50;99.90
16955;DHT22;8594;52.052;8.354;2023-02-28T15:32:28;6.40;99.60
16955;DHT22;8594;52.052;8.354;2023-02-28T15:34:57;6.50;99.60
16955;DHT22;8594;52.052;8.354;2023-02-28T15:37:33;6.40;99.80
16955;DHT22;8594;52.052;8.354;2023-02-28T15:40:14;6.20;99.90
16955;DHT22;8594;52.052;8.354;2023-02-28T15:42:59;6.10;99.90
16955;DHT22;8594;52.052;8.354;2023-02-28T15:45:37;6.10;99.90
16955;DHT22;8594;52.052;8.354;2023-02-28T15:48:16;6.00;99.90
16955;DHT22;8594;52.052;8.354;2023-02-28T15:50:48;6.00;99.90
16955;DHT22;8594;52.052;8.354;2023-02-28T15:53:18;6.10;99.90
16955;DHT22;8594;52.052;8.354;2023-02-28T15:55:59;6.30;99.90
16955;DHT22;8594;52.052;8.354;2023-02-28T15:58:30;6.50;99.90
16955;DHT22;8594;52.052;8.354;2023-02-28T16:01:21;6.40;99.90
16955;DHT22;8594;52.052;8.354;2023-02-28T16:03:53;6.30;99.90
16955;DHT22;8594;52.052;8.354;2023-02-28T16:06:36;6.40;99.90
16955;DHT22;8594;52.052;8.354;2023-02-28T16:09:06;6.40;99.90
16955;DHT22;8594;52.052;8.354;2023-02-28T16:11:39;6.40;99.90
16955;DHT22;8594;52.052;8.354;2023-02-28T16:14:17;6.30;99.90
16955;DHT22;8594;52.052;8.354;2023-02-28T16:16:51;6.30;99.90
16955;DHT22;8594;52.052;8.354;2023-02-28T16:19:19;6.40;99.90
16955;DHT22;8594;52.052;8.354;2023-02-28T16:21:47;6.40;99.90
16955;DHT22;8594;52.052;8.354;2023-02-28T16:24:16;6.20;99.90
16955;DHT22;8594;52.052;8.354;2023-02-28T16:26:47;6.20;99.90
16955;DHT22;8594;52.052;8.354;2023-02-28T16:29:26;6.10;99.90
16955;DHT22;8594;52.052;8.354;2023-02-28T16:32:02;6.20;99.90
16955;DHT22;8594;52.052;8.354;2023-02-28T16:34:32;6.40;99.90
16955;DHT22;8594;52.052;8.354;2023-02-28T16:37:04;6.10;99.90
16955;DHT22;8594;52.052;8.354;2023-02-28T16:39:38;6.10;99.90
16955;DHT22;8594;52.052;8.354;2023-02-28T16:42:23;6.00;99.90
16955;DHT22;8594;52.052;8.354;2023-02-28T16:44:58;6.10;99.90
16955;DHT22;8594;52.052;8.354;2023-02-28T16:47:36;6.20;99.90
16955;DHT22;8594;52.052;8.354;2023-02-28T16:50:08;6.20;99.90
16955;DHT22;8594;52.052;8.354;2023-02-28T16:52:39;6.20;99.90
16955;DHT22;8594;52.052;8.354;2023-02-28T16:55:06;6.00;99.90
16955;DHT22;8594;52.052;8.354;2023-02-28T16:57:33;6.00;99.90
16955;DHT22;8594;52.052;8.354;2023-02-28T17:00:01;6.00;99.90
16955;DHT22;8594;52.052;8.354;2023-02-28T17:02:28;6.00;99.90
16955;DHT22;8594;52.052;8.354;2023-02-28T17:04:56;6.10;99.90
16955;DHT22;8594;52.052;8.354;2023-02-28T17:07:23;6.10;99.90
16955;DHT22;8594;52.052;8.354;2023-02-28T17:09:50;6.10;99.90